sensor_id;sensor_type;location;lat;lon;timestamp;temperature;humidity
13256;DHT22;37913;48.370;10.930;2023-08-12T00:02:16;17.50;99.90
13256;DHT22;37913;48.370;10.930;2023-08-12T00:04:42;17.30;99.90
13256;DHT22;37913;48.370;10.930;2023-08-12T00:07:09;17.30;99.90
13256;DHT22;37913;48.370;10.930;2023-08-12T00:09:36;17.20;99.90
13256;DHT22;37913;48.370;10.930;2023-08-12T00:12:04;17.20;99.90
13256;DHT22;37913;48.370;10.930;2023-08-12T00:14:31;17.20;99.90
13256;DHT22;37913;48.370;10.930;2023-08-12T00:16:58;17.20;99.90
13256;DHT22;37913;48.370;10.930;2023-08-12T00:19:26;17.20;99.90
13256;DHT22;37913;48.370;10.930;2023-08-12T00:21:53;17.10;99.90
13256;DHT22;37913;48.370;10.930;2023-08-12T00:24:20;17.10;99.90
13256;DHT22;37913;48.370;10.930;2023-08-12T00:26:46;17.00;99.90
13256;DHT22;37913;48.370;10.930;2023-08-12T00:29:13;16.90;99.90
13256;DHT22;37913;48.370;10.930;2023-08-12T00:31:40;16.80;99.90
13256;DHT22;37913;48.370;10.930;2023-08-12T00:34:07;16.80;99.90
13256;DHT22;37913;48.370;10.930;2023-08-12T00:36:36;16.70;99.90
13256;DHT22;37913;48.370;10.930;2023-08-12T00:39:03;16.70;99.90
13256;DHT22;37913;48.370;10.930;2023-08-12T00:41:30;16.70;99.90
13256;DHT22;37913;48.370;10.930;2023-08-12T00:43:57;16.70;99.90
13256;DHT22;37913;48.370;10.930;2023-08-12T00:46:24;16.60;99.90
13256;DHT22;37913;48.370;10.930;2023-08-12T00:48:51;16.60;99.90
13256;DHT22;37913;48.370;10.930;2023-08-12T00:51:19;16.50;99.90
13256;DHT22;37913;48.370;10.930;2023-08-12T00:53:47;16.50;99.90
13256;DHT22;37913;48.370;10.930;2023-08-12T00:56:14;16.40;99.90
13256;DHT22;37913;48.370;10.930;2023-08-12T00:58:43;16.40;99.90
13256;DHT22;37913;48.370;10.930;2023-08-12T01:01:10;16.30;99.90
13256;DHT22;37913;48.370;10.930;2023-08-12T01:03:37;16.20;99.90
13256;DHT22;37913;48.370;10.930;2023-08-12T01:06:05;16.20;99.90
13256;DHT22;37913;48.370;10.930;2023-08-12T01:08:35;16.10;99.90
13256;DHT22;37913;48.370;10.930;2023-08-12T01:11:08;16.10;99.90
13256;DHT22;37913;48.370;10.930;2023-08-12T01:13:44;16.00;99.90
13256;DHT22;37913;48.370;10.930;2023-08-12T01:16:13;15.90;99.90
13256;DHT22;37913;48.370;10.930;2023-08-12T01:18:43;15.80;99.90
13256;DHT22;37913;48.370;10.930;2023-08-12T01:21:15;15.80;99.90
13256;DHT22;37913;48.370;10.930;2023-08-12T01:23:44;15.80;99.90
13256;DHT22;37913;48.370;10.930;2023-08-12T01:26:11;15.80;99.90
13256;DHT22;37913;48.370;10.930;2023-08-12T01:28:38;15.80;99.90
13256;DHT22;37913;48.370;10.930;2023-08-12T01:31:10;15.70;99.90
13256;DHT22;37913;48.370;10.930;2023-08-12T01:33:42;15.70;99.90
13256;DHT22;37913;48.370;10.930;2023-08-12T01:36:12;15.80;99.90
13256;DHT22;37913;48.370;10.930;2023-08-12T01:38:43;15.80;99.90
13256;DHT22;37913;48.370;10.930;2023-08-12T01:41:12;15.90;99.90
13256;DHT22;37913;48.370;10.930;2023-08-12T01:43:40;16.00;99.90
13256;DHT22;37913;48.370;10.930;2023-08-12T01:46:08;16.00;99.90
13256;DHT22;37913;48.370;10.930;2023-08-12T01:48:35;16.00;99.90
13256;DHT22;37913;48.370;10.930;2023-08-12T01:51:02;16.00;99.90
13256;DHT22;37913;48.370;10.930;2023-08-12T01:53:30;15.90;99.90
13256;DHT22;37913;48.370;10.930;2023-08-12T01:55:58;15.80;99.90
13256;DHT22;37913;48.370;10.930;2023-08-12T01:58:25;15.80;99.90
13256;DHT22;37913;48.370;10.930;2023-08-12T02:00:52;15.80;99.90
13256;DHT22;37913;48.370;10.930;2023-08-12T02:03:19;15.80;99.90
13256;DHT22;37913;48.370;10.930;2023-08-12T02:05:46;15.80;99.90
13256;DHT22;37913;48.370;10.930;2023-08-12T02:08:13;15.80;99.90
13256;DHT22;37913;48.370;10.930;2023-08-12T02:10:40;15.70;99.90
13256;DHT22;37913;48.370;10.930;2023-08-12T02:13:08;15.70;99.90
13256;DHT22;37913;48.370;10.930;2023-08-12T02:15:35;15.60;99.90
13256;DHT22;37913;48.370;10.930;2023-08-12T02:18:02;15.60;99.90
13256;DHT22;37913;48.370;10.930;2023-08-12T02:20:29;15.50;99.90
13256;DHT22;37913;48.370;10.930;2023-08-12T02:22:56;15.50;99.90
13256;DHT22;37913;48.370;10.930;2023-08-12T02:25:23;15.40;99.90
13256;DHT22;37913;48.370;10.930;2023-08-12T02:27:50;15.30;99.90
13256;DHT22;37913;48.370;10.930;2023-08-12T02:30:18;15.30;99.90
13256;DHT22;37913;48.370;10.930;2023-08-12T02:32:45;15.30;99.90
13256;DHT22;37913;48.370;10.930;2023-08-12T02:35:12;15.30;99.90
13256;DHT22;37913;48.370;10.930;2023-08-12T02:37:39;15.30;99.90
13256;DHT22;37913;48.370;10.930;2023-08-12T02:40:07;15.20;99.90
13256;DHT22;37913;48.370;10.930;2023-08-12T02:42:36;15.20;99.90
13256;DHT22;37913;48.370;10.930;2023-08-12T02:45:04;15.20;99.90
13256;DHT22;37913;48.370;10.930;2023-08-12T02:47:32;15.10;99.90
13256;DHT22;37913;48.370;10.930;2023-08-12T02:49:59;15.00;99.90
13256;DHT22;37913;48.370;10.930;2023-08-12T02:52:26;15.10;99.90
13256;DHT22;37913;48.370;10.930;2023-08-12T02:54:53;15.10;99.90
13256;DHT22;37913;48.370;10.930;2023-08-12T02:57:21;15.10;99.90
13256;DHT22;37913;48.370;10.930;2023-08-12T02:59:48;15.00;99.90
13256;DHT22;37913;48.370;10.930;2023-08-12T03:02:15;15.00;99.90
13256;DHT22;37913;48.370;10.930;2023-08-12T03:04:44;15.10;99.90
13256;DHT22;37913;48.370;10.930;2023-08-12T03:07:11;15.10;99.90
13256;DHT22;37913;48.370;10.930;2023-08-12T03:09:38;15.00;99.90
13256;DHT22;37913;48.370;10.930;2023-08-12T03:12:05;15.10;99.90
13256;DHT22;37913;48.370;10.930;2023-08-12T03:14:32;15.10;99.90
13256;DHT22;37913;48.370;10.930;2023-08-12T03:16:59;15.10;99.90
13256;DHT22;37913;48.370;10.930;2023-08-12T03:19:26;15.10;99.90
13256;DHT22;37913;48.370;10.930;2023-08-12T03:21:54;15.00;99.90
13256;DHT22;37913;48.370;10.930;2023-08-12T03:24:21;15.00;99.90
13256;DHT22;37913;48.370;10.930;2023-08-12T03:26:48;15.10;99.90
13256;DHT22;37913;48.370;10.930;2023-08-12T03:29:15;15.10;99.90
13256;DHT22;37913;48.370;10.930;2023-08-12T03:31:42;15.10;99.90
13256;DHT22;37913;48.370;10.930;2023-08-12T03:34:09;15.10;99.90
13256;DHT22;37913;48.370;10.930;2023-08-12T03:36:36;15.00;99.90
13256;DHT22;37913;48.370;10.930;2023-08-12T03:39:04;14.90;99.90
13256;DHT22;37913;48.370;10.930;2023-08-12T03:41:31;14.90;99.90
13256;DHT22;37913;48.370;10.930;2023-08-12T03:43:58;14.80;99.90
13256;DHT22;37913;48.370;10.930;2023-08-12T03:46:25;14.70;99.90
13256;DHT22;37913;48.370;10.930;2023-08-12T03:48:52;14.70;99.90
13256;DHT22;37913;48.370;10.930;2023-08-12T03:51:19;14.70;99.90
13256;DHT22;37913;48.370;10.930;2023-08-12T03:53:46;14.80;99.90
13256;DHT22;37913;48.370;10.930;2023-08-12T03:56:14;14.90;99.90
13256;DHT22;37913;48.370;10.930;2023-08-12T03:58:43;13.50;99.90
13256;DHT22;37913;48.370;10.930;2023-08-12T04:01:10;14.70;99.90
13256;DHT22;37913;48.370;10.930;2023-08-12T04:03:37;14.60;99.90
13256;DHT22;37913;48.370;10.930;2023-08-12T04:06:04;14.50;99.90
13256;DHT22;37913;48.370;10.930;2023-08-12T04:08:31;14.40;99.90
13256;DHT22;37913;48.370;10.930;2023-08-12T04:10:59;14.40;99.90
13256;DHT22;37913;48.370;10.930;2023-08-12T04:13:27;14.50;99.90
13256;DHT22;37913;48.370;10.930;2023-08-12T04:15:54;14.40;99.90
13256;DHT22;37913;48.370;10.930;2023-08-12T04:18:21;14.40;99.90
13256;DHT22;37913;48.370;10.930;2023-08-12T04:20:49;14.40;99.90
13256;DHT22;37913;48.370;10.930;2023-08-12T04:23:16;14.40;99.90
13256;DHT22;37913;48.370;10.930;2023-08-12T04:25:43;14.50;99.90
13256;DHT22;37913;48.370;10.930;2023-08-12T04:28:10;14.60;99.90
13256;DHT22;37913;48.370;10.930;2023-08-12T04:30:41;14.70;99.90
13256;DHT22;37913;48.370;10.930;2023-08-12T04:33:08;14.70;99.90
13256;DHT22;37913;48.370;10.930;2023-08-12T04:35:35;14.70;99.90
13256;DHT22;37913;48.370;10.930;2023-08-12T04:38:03;14.80;99.90
13256;DHT22;37913;48.370;10.930;2023-08-12T04:40:30;14.90;99.90
13256;DHT22;37913;48.370;10.930;2023-08-12T04:42:58;15.00;99.90
13256;DHT22;37913;48.370;10.930;2023-08-12T04:45:24;15.20;99.90
13256;DHT22;37913;48.370;10.930;2023-08-12T04:47:53;15.30;99.90
13256;DHT22;37913;48.370;10.930;2023-08-12T04:50:20;15.50;99.90
13256;DHT22;37913;48.370;10.930;2023-08-12T04:52:47;15.60;99.90
13256;DHT22;37913;48.370;10.930;2023-08-12T04:55:14;15.80;99.90
13256;DHT22;37913;48.370;10.930;2023-08-12T04:57:42;16.00;99.90
13256;DHT22;37913;48.370;10.930;2023-08-12T05:00:10;16.30;99.90
13256;DHT22;37913;48.370;10.930;2023-08-12T05:02:37;16.50;99.90
13256;DHT22;37913;48.370;10.930;2023-08-12T05:05:07;16.80;99.90
13256;DHT22;37913;48.370;10.930;2023-08-12T05:07:41;17.10;99.90
13256;DHT22;37913;48.370;10.930;2023-08-12T05:10:09;17.40;99.90
13256;DHT22;37913;48.370;10.930;2023-08-12T05:12:36;17.60;99.90
13256;DHT22;37913;48.370;10.930;2023-08-12T05:15:04;17.70;99.90
13256;DHT22;37913;48.370;10.930;2023-08-12T05:17:31;18.20;99.90
13256;DHT22;37913;48.370;10.930;2023-08-12T05:19:58;18.60;99.90
13256;DHT22;37913;48.370;10.930;2023-08-12T05:22:26;19.00;99.90
13256;DHT22;37913;48.370;10.930;2023-08-12T05:24:53;19.40;99.90
13256;DHT22;37913;48.370;10.930;2023-08-12T05:27:20;19.70;99.90
13256;DHT22;37913;48.370;10.930;2023-08-12T05:29:47;19.50;99.90
13256;DHT22;37913;48.370;10.930;2023-08-12T05:32:13;19.60;99.90
13256;DHT22;37913;48.370;10.930;2023-08-12T05:34:40;19.70;99.90
13256;DHT22;37913;48.370;10.930;2023-08-12T05:37:07;19.70;99.90
13256;DHT22;37913;48.370;10.930;2023-08-12T05:39:36;19.50;99.90
13256;DHT22;37913;48.370;10.930;2023-08-12T05:42:03;19.30;99.90
13256;DHT22;37913;48.370;10.930;2023-08-12T05:44:29;19.10;99.90
13256;DHT22;37913;48.370;10.930;2023-08-12T05:46:56;18.60;99.90
13256;DHT22;37913;48.370;10.930;2023-08-12T05:49:23;18.30;99.90
13256;DHT22;37913;48.370;10.930;2023-08-12T05:51:50;18.20;99.90
13256;DHT22;37913;48.370;10.930;2023-08-12T05:54:17;18.10;99.90
13256;DHT22;37913;48.370;10.930;2023-08-12T05:56:45;18.00;99.90
13256;DHT22;37913;48.370;10.930;2023-08-12T05:59:12;18.20;99.90
13256;DHT22;37913;48.370;10.930;2023-08-12T06:01:39;18.70;99.90
13256;DHT22;37913;48.370;10.930;2023-08-12T06:04:06;19.30;99.90
13256;DHT22;37913;48.370;10.930;2023-08-12T06:06:33;20.10;99.90
13256;DHT22;37913;48.370;10.930;2023-08-12T06:09:00;21.00;99.90
13256;DHT22;37913;48.370;10.930;2023-08-12T06:11:26;21.60;99.90
13256;DHT22;37913;48.370;10.930;2023-08-12T06:13:55;22.30;99.90
13256;DHT22;37913;48.370;10.930;2023-08-12T06:16:22;22.40;99.90
13256;DHT22;37913;48.370;10.930;2023-08-12T06:18:48;23.00;99.90
13256;DHT22;37913;48.370;10.930;2023-08-12T06:21:15;23.60;99.90
13256;DHT22;37913;48.370;10.930;2023-08-12T06:23:42;24.00;99.90
13256;DHT22;37913;48.370;10.930;2023-08-12T06:26:09;24.40;99.90
13256;DHT22;37913;48.370;10.930;2023-08-12T06:28:36;25.10;99.90
13256;DHT22;37913;48.370;10.930;2023-08-12T06:31:04;25.10;99.90
13256;DHT22;37913;48.370;10.930;2023-08-12T06:33:31;25.50;99.90
13256;DHT22;37913;48.370;10.930;2023-08-12T06:35:58;25.20;99.90
13256;DHT22;37913;48.370;10.930;2023-08-12T06:38:25;24.50;99.90
13256;DHT22;37913;48.370;10.930;2023-08-12T06:40:51;23.90;99.90
13256;DHT22;37913;48.370;10.930;2023-08-12T06:43:18;24.10;99.90
13256;DHT22;37913;48.370;10.930;2023-08-12T06:45:45;24.80;99.90
13256;DHT22;37913;48.370;10.930;2023-08-12T06:48:14;25.70;99.90
13256;DHT22;37913;48.370;10.930;2023-08-12T06:50:41;24.50;99.90
13256;DHT22;37913;48.370;10.930;2023-08-12T06:53:06;25.60;99.90
13256;DHT22;37913;48.370;10.930;2023-08-12T06:55:33;27.50;99.90
13256;DHT22;37913;48.370;10.930;2023-08-12T06:58:00;29.10;99.90
13256;DHT22;37913;48.370;10.930;2023-08-12T07:00:28;29.60;99.90
13256;DHT22;37913;48.370;10.930;2023-08-12T07:02:55;28.70;99.90
13256;DHT22;37913;48.370;10.930;2023-08-12T07:05:23;27.30;99.90
13256;DHT22;37913;48.370;10.930;2023-08-12T07:07:50;28.70;99.90
13256;DHT22;37913;48.370;10.930;2023-08-12T07:10:17;29.90;99.90
13256;DHT22;37913;48.370;10.930;2023-08-12T07:12:43;30.40;99.90
13256;DHT22;37913;48.370;10.930;2023-08-12T07:15:11;31.50;99.90
13256;DHT22;37913;48.370;10.930;2023-08-12T07:17:37;31.30;99.90
13256;DHT22;37913;48.370;10.930;2023-08-12T07:20:06;30.90;99.90
13256;DHT22;37913;48.370;10.930;2023-08-12T07:22:35;30.60;99.90
13256;DHT22;37913;48.370;10.930;2023-08-12T07:25:02;27.80;99.90
13256;DHT22;37913;48.370;10.930;2023-08-12T07:27:29;28.50;99.90
13256;DHT22;37913;48.370;10.930;2023-08-12T07:29:55;27.80;99.90
13256;DHT22;37913;48.370;10.930;2023-08-12T07:32:22;26.70;99.90
13256;DHT22;37913;48.370;10.930;2023-08-12T07:34:49;26.40;99.90
13256;DHT22;37913;48.370;10.930;2023-08-12T07:37:16;26.10;99.90
13256;DHT22;37913;48.370;10.930;2023-08-12T07:39:44;26.60;99.90
13256;DHT22;37913;48.370;10.930;2023-08-12T07:42:11;26.40;99.90
13256;DHT22;37913;48.370;10.930;2023-08-12T07:44:38;27.40;99.90
13256;DHT22;37913;48.370;10.930;2023-08-12T07:47:05;28.00;99.90
13256;DHT22;37913;48.370;10.930;2023-08-12T07:49:32;28.60;99.90
13256;DHT22;37913;48.370;10.930;2023-08-12T07:51:59;29.30;99.90
13256;DHT22;37913;48.370;10.930;2023-08-12T07:54:26;29.90;99.90
13256;DHT22;37913;48.370;10.930;2023-08-12T07:56:54;30.30;99.90
13256;DHT22;37913;48.370;10.930;2023-08-12T07:59:21;30.60;99.90
13256;DHT22;37913;48.370;10.930;2023-08-12T08:01:48;29.10;99.90
13256;DHT22;37913;48.370;10.930;2023-08-12T08:04:15;29.00;99.90
13256;DHT22;37913;48.370;10.930;2023-08-12T08:06:42;27.70;99.90
13256;DHT22;37913;48.370;10.930;2023-08-12T08:09:09;27.20;99.90
13256;DHT22;37913;48.370;10.930;2023-08-12T08:11:36;27.30;99.90
13256;DHT22;37913;48.370;10.930;2023-08-12T08:14:05;26.80;99.90
13256;DHT22;37913;48.370;10.930;2023-08-12T08:16:31;27.40;99.90
13256;DHT22;37913;48.370;10.930;2023-08-12T08:18:58;28.70;99.90
13256;DHT22;37913;48.370;10.930;2023-08-12T08:21:26;29.10;99.90
13256;DHT22;37913;48.370;10.930;2023-08-12T08:23:52;29.30;99.90
13256;DHT22;37913;48.370;10.930;2023-08-12T08:26:19;30.60;99.90
13256;DHT22;37913;48.370;10.930;2023-08-12T08:28:46;31.60;99.90
13256;DHT22;37913;48.370;10.930;2023-08-12T08:31:14;32.40;99.90
13256;DHT22;37913;48.370;10.930;2023-08-12T08:33:41;32.70;98.70
13256;DHT22;37913;48.370;10.930;2023-08-12T08:36:08;31.70;98.10
13256;DHT22;37913;48.370;10.930;2023-08-12T08:38:36;31.60;99.10
13256;DHT22;37913;48.370;10.930;2023-08-12T08:41:05;32.20;98.30
13256;DHT22;37913;48.370;10.930;2023-08-12T08:43:35;31.70;98.90
13256;DHT22;37913;48.370;10.930;2023-08-12T08:46:03;30.90;98.80
13256;DHT22;37913;48.370;10.930;2023-08-12T08:48:33;29.20;99.90
13256;DHT22;37913;48.370;10.930;2023-08-12T08:51:00;29.00;99.90
13256;DHT22;37913;48.370;10.930;2023-08-12T08:53:28;29.00;99.90
13256;DHT22;37913;48.370;10.930;2023-08-12T08:55:55;29.20;99.90
13256;DHT22;37913;48.370;10.930;2023-08-12T08:58:22;29.50;99.90
13256;DHT22;37913;48.370;10.930;2023-08-12T09:00:50;29.80;99.90
13256;DHT22;37913;48.370;10.930;2023-08-12T09:03:17;29.60;99.90
13256;DHT22;37913;48.370;10.930;2023-08-12T09:05:46;29.50;99.90
13256;DHT22;37913;48.370;10.930;2023-08-12T09:08:14;29.80;99.90
13256;DHT22;37913;48.370;10.930;2023-08-12T09:10:42;29.70;99.90
13256;DHT22;37913;48.370;10.930;2023-08-12T09:13:09;29.90;99.90
13256;DHT22;37913;48.370;10.930;2023-08-12T09:15:36;30.00;99.90
13256;DHT22;37913;48.370;10.930;2023-08-12T09:18:05;30.10;99.90
13256;DHT22;37913;48.370;10.930;2023-08-12T09:20:32;29.80;99.90
13256;DHT22;37913;48.370;10.930;2023-08-12T09:23:01;29.30;99.90
13256;DHT22;37913;48.370;10.930;2023-08-12T09:25:28;30.20;99.90
13256;DHT22;37913;48.370;10.930;2023-08-12T09:27:59;30.70;99.90
13256;DHT22;37913;48.370;10.930;2023-08-12T09:30:29;31.70;99.90
13256;DHT22;37913;48.370;10.930;2023-08-12T09:33:00;32.70;99.50
13256;DHT22;37913;48.370;10.930;2023-08-12T09:35:33;35.30;97.00
13256;DHT22;37913;48.370;10.930;2023-08-12T09:38:03;38.50;92.00
13256;DHT22;37913;48.370;10.930;2023-08-12T09:40:31;36.20;89.60
13256;DHT22;37913;48.370;10.930;2023-08-12T09:42:58;37.70;88.00
13256;DHT22;37913;48.370;10.930;2023-08-12T09:45:26;38.20;85.40
13256;DHT22;37913;48.370;10.930;2023-08-12T09:47:53;35.40;90.70
13256;DHT22;37913;48.370;10.930;2023-08-12T09:50:21;39.10;84.50
13256;DHT22;37913;48.370;10.930;2023-08-12T09:52:49;41.40;77.90
13256;DHT22;37913;48.370;10.930;2023-08-12T09:55:19;39.20;78.50
13256;DHT22;37913;48.370;10.930;2023-08-12T09:57:48;39.00;78.70
13256;DHT22;37913;48.370;10.930;2023-08-12T10:00:18;40.70;75.30
13256;DHT22;37913;48.370;10.930;2023-08-12T10:02:47;41.00;72.30
13256;DHT22;37913;48.370;10.930;2023-08-12T10:05:19;38.30;75.80
13256;DHT22;37913;48.370;10.930;2023-08-12T10:07:49;36.30;80.40
13256;DHT22;37913;48.370;10.930;2023-08-12T10:10:17;37.00;77.10
13256;DHT22;37913;48.370;10.930;2023-08-12T10:12:44;35.40;79.30
13256;DHT22;37913;48.370;10.930;2023-08-12T10:15:12;34.00;86.50
13256;DHT22;37913;48.370;10.930;2023-08-12T10:17:40;33.20;88.90
13256;DHT22;37913;48.370;10.930;2023-08-12T10:20:12;33.20;88.70
13256;DHT22;37913;48.370;10.930;2023-08-12T10:22:39;34.30;86.60
13256;DHT22;37913;48.370;10.930;2023-08-12T10:25:08;37.60;80.20
13256;DHT22;37913;48.370;10.930;2023-08-12T10:27:36;39.00;72.20
13256;DHT22;37913;48.370;10.930;2023-08-12T10:30:04;39.50;71.10
13256;DHT22;37913;48.370;10.930;2023-08-12T10:32:31;34.80;76.50
13256;DHT22;37913;48.370;10.930;2023-08-12T10:35:00;35.50;79.40
13256;DHT22;37913;48.370;10.930;2023-08-12T10:37:32;38.60;73.90
13256;DHT22;37913;48.370;10.930;2023-08-12T10:39:59;42.20;68.30
13256;DHT22;37913;48.370;10.930;2023-08-12T10:42:41;42.00;67.60
13256;DHT22;37913;48.370;10.930;2023-08-12T10:45:09;37.90;70.90
13256;DHT22;37913;48.370;10.930;2023-08-12T10:47:41;40.50;68.50
13256;DHT22;37913;48.370;10.930;2023-08-12T10:50:17;44.00;65.00
13256;DHT22;37913;48.370;10.930;2023-08-12T10:52:45;47.90;58.80
13256;DHT22;37913;48.370;10.930;2023-08-12T10:55:20;50.40;51.70
13256;DHT22;37913;48.370;10.930;2023-08-12T10:57:49;51.70;48.60
13256;DHT22;37913;48.370;10.930;2023-08-12T11:00:17;49.60;48.20
13256;DHT22;37913;48.370;10.930;2023-08-12T11:02:49;46.80;49.50
13256;DHT22;37913;48.370;10.930;2023-08-12T11:05:17;45.30;51.20
13256;DHT22;37913;48.370;10.930;2023-08-12T11:07:46;44.60;52.10
13256;DHT22;37913;48.370;10.930;2023-08-12T11:10:15;43.20;53.60
13256;DHT22;37913;48.370;10.930;2023-08-12T11:12:49;41.60;55.40
13256;DHT22;37913;48.370;10.930;2023-08-12T11:15:29;40.30;57.80
13256;DHT22;37913;48.370;10.930;2023-08-12T11:17:58;39.50;59.90
13256;DHT22;37913;48.370;10.930;2023-08-12T11:20:28;38.20;64.60
13256;DHT22;37913;48.370;10.930;2023-08-12T11:22:55;36.90;67.80
13256;DHT22;37913;48.370;10.930;2023-08-12T11:25:24;39.10;65.80
13256;DHT22;37913;48.370;10.930;2023-08-12T11:27:52;43.00;61.70
13256;DHT22;37913;48.370;10.930;2023-08-12T11:30:20;46.80;55.00
13256;DHT22;37913;48.370;10.930;2023-08-12T11:32:49;50.20;50.30
13256;DHT22;37913;48.370;10.930;2023-08-12T11:35:17;51.00;47.50
13256;DHT22;37913;48.370;10.930;2023-08-12T11:37:45;52.00;45.70
13256;DHT22;37913;48.370;10.930;2023-08-12T11:40:13;52.20;45.30
13256;DHT22;37913;48.370;10.930;2023-08-12T11:42:42;51.60;44.30
13256;DHT22;37913;48.370;10.930;2023-08-12T11:45:12;51.00;43.90
13256;DHT22;37913;48.370;10.930;2023-08-12T11:47:40;49.40;44.70
13256;DHT22;37913;48.370;10.930;2023-08-12T11:50:08;46.90;46.20
13256;DHT22;37913;48.370;10.930;2023-08-12T11:52:36;44.80;48.20
13256;DHT22;37913;48.370;10.930;2023-08-12T11:55:05;42.50;51.10
13256;DHT22;37913;48.370;10.930;2023-08-12T11:57:32;40.80;53.90
13256;DHT22;37913;48.370;10.930;2023-08-12T12:00:01;37.10;58.60
13256;DHT22;37913;48.370;10.930;2023-08-12T12:02:37;36.60;59.80
13256;DHT22;37913;48.370;10.930;2023-08-12T12:05:08;35.70;63.40
13256;DHT22;37913;48.370;10.930;2023-08-12T12:07:34;35.50;64.10
13256;DHT22;37913;48.370;10.930;2023-08-12T12:10:02;34.80;66.40
13256;DHT22;37913;48.370;10.930;2023-08-12T12:12:29;33.40;70.10
13256;DHT22;37913;48.370;10.930;2023-08-12T12:14:56;33.90;71.00
13256;DHT22;37913;48.370;10.930;2023-08-12T12:17:23;34.10;70.80
13256;DHT22;37913;48.370;10.930;2023-08-12T12:19:55;33.70;72.90
13256;DHT22;37913;48.370;10.930;2023-08-12T12:22:26;33.70;71.90
13256;DHT22;37913;48.370;10.930;2023-08-12T12:24:53;33.70;72.80
13256;DHT22;37913;48.370;10.930;2023-08-12T12:27:20;33.70;72.20
13256;DHT22;37913;48.370;10.930;2023-08-12T12:29:47;32.90;74.60
13256;DHT22;37913;48.370;10.930;2023-08-12T12:32:14;33.60;73.40
13256;DHT22;37913;48.370;10.930;2023-08-12T12:34:41;34.30;73.80
13256;DHT22;37913;48.370;10.930;2023-08-12T12:37:09;34.30;73.80
13256;DHT22;37913;48.370;10.930;2023-08-12T12:39:36;34.40;72.70
13256;DHT22;37913;48.370;10.930;2023-08-12T12:42:03;36.10;70.30
13256;DHT22;37913;48.370;10.930;2023-08-12T12:44:30;36.70;67.80
13256;DHT22;37913;48.370;10.930;2023-08-12T12:46:57;40.20;62.40
13256;DHT22;37913;48.370;10.930;2023-08-12T12:49:24;43.60;56.50
13256;DHT22;37913;48.370;10.930;2023-08-12T12:51:50;46.30;51.50
13256;DHT22;37913;48.370;10.930;2023-08-12T12:54:19;42.80;53.10
13256;DHT22;37913;48.370;10.930;2023-08-12T12:56:46;40.80;57.10
13256;DHT22;37913;48.370;10.930;2023-08-12T12:59:12;43.80;53.90
13256;DHT22;37913;48.370;10.930;2023-08-12T13:01:40;41.80;52.90
13256;DHT22;37913;48.370;10.930;2023-08-12T13:04:07;39.10;56.20
13256;DHT22;37913;48.370;10.930;2023-08-12T13:06:35;38.20;58.30
13256;DHT22;37913;48.370;10.930;2023-08-12T13:09:02;35.80;61.30
13256;DHT22;37913;48.370;10.930;2023-08-12T13:11:32;35.20;64.20
13256;DHT22;37913;48.370;10.930;2023-08-12T13:13:59;34.00;66.20
13256;DHT22;37913;48.370;10.930;2023-08-12T13:16:26;35.00;66.10
13256;DHT22;37913;48.370;10.930;2023-08-12T13:18:53;37.10;61.40
13256;DHT22;37913;48.370;10.930;2023-08-12T13:21:19;38.80;59.50
13256;DHT22;37913;48.370;10.930;2023-08-12T13:23:46;40.00;58.00
13256;DHT22;37913;48.370;10.930;2023-08-12T13:26:13;41.30;56.50
13256;DHT22;37913;48.370;10.930;2023-08-12T13:28:42;39.30;58.60
13256;DHT22;37913;48.370;10.930;2023-08-12T13:31:09;38.90;55.90
13256;DHT22;37913;48.370;10.930;2023-08-12T13:33:36;38.40;57.00
13256;DHT22;37913;48.370;10.930;2023-08-12T13:36:03;37.00;58.90
13256;DHT22;37913;48.370;10.930;2023-08-12T13:38:30;36.10;60.60
13256;DHT22;37913;48.370;10.930;2023-08-12T13:40:57;34.20;64.20
13256;DHT22;37913;48.370;10.930;2023-08-12T13:43:24;34.70;65.10
13256;DHT22;37913;48.370;10.930;2023-08-12T13:45:52;35.00;63.50
13256;DHT22;37913;48.370;10.930;2023-08-12T13:48:19;34.20;65.10
13256;DHT22;37913;48.370;10.930;2023-08-12T13:50:46;33.20;67.40
13256;DHT22;37913;48.370;10.930;2023-08-12T13:53:15;33.20;69.10
13256;DHT22;37913;48.370;10.930;2023-08-12T13:55:41;33.70;69.50
13256;DHT22;37913;48.370;10.930;2023-08-12T13:58:08;33.90;68.60
13256;DHT22;37913;48.370;10.930;2023-08-12T14:00:35;33.70;69.00
13256;DHT22;37913;48.370;10.930;2023-08-12T14:03:04;33.60;70.00
13256;DHT22;37913;48.370;10.930;2023-08-12T14:05:31;33.40;70.60
13256;DHT22;37913;48.370;10.930;2023-08-12T14:07:58;33.20;71.90
13256;DHT22;37913;48.370;10.930;2023-08-12T14:10:25;32.40;73.70
13256;DHT22;37913;48.370;10.930;2023-08-12T14:12:52;32.40;75.20
13256;DHT22;37913;48.370;10.930;2023-08-12T14:15:19;32.50;75.10
13256;DHT22;37913;48.370;10.930;2023-08-12T14:17:46;32.30;76.50
13256;DHT22;37913;48.370;10.930;2023-08-12T14:20:14;31.90;78.60
13256;DHT22;37913;48.370;10.930;2023-08-12T14:22:42;30.90;83.10
13256;DHT22;37913;48.370;10.930;2023-08-12T14:25:10;30.50;87.90
13256;DHT22;37913;48.370;10.930;2023-08-12T14:27:37;30.10;90.30
13256;DHT22;37913;48.370;10.930;2023-08-12T14:30:05;29.70;91.10
13256;DHT22;37913;48.370;10.930;2023-08-12T14:32:32;29.50;91.60
13256;DHT22;37913;48.370;10.930;2023-08-12T14:34:59;29.70;92.00
13256;DHT22;37913;48.370;10.930;2023-08-12T14:37:27;29.50;91.90
13256;DHT22;37913;48.370;10.930;2023-08-12T14:39:54;29.20;92.70
13256;DHT22;37913;48.370;10.930;2023-08-12T14:42:21;29.10;93.30
13256;DHT22;37913;48.370;10.930;2023-08-12T14:44:49;28.90;94.10
13256;DHT22;37913;48.370;10.930;2023-08-12T14:47:15;28.90;94.20
13256;DHT22;37913;48.370;10.930;2023-08-12T14:49:42;29.50;93.90
13256;DHT22;37913;48.370;10.930;2023-08-12T14:52:16;29.80;93.60
13256;DHT22;37913;48.370;10.930;2023-08-12T14:54:46;30.10;93.90
13256;DHT22;37913;48.370;10.930;2023-08-12T14:57:13;30.80;93.10
13256;DHT22;37913;48.370;10.930;2023-08-12T14:59:40;31.00;92.10
13256;DHT22;37913;48.370;10.930;2023-08-12T15:02:07;31.80;91.60
13256;DHT22;37913;48.370;10.930;2023-08-12T15:04:34;32.10;90.90
13256;DHT22;37913;48.370;10.930;2023-08-12T15:07:02;31.90;90.20
13256;DHT22;37913;48.370;10.930;2023-08-12T15:09:28;31.80;90.60
13256;DHT22;37913;48.370;10.930;2023-08-12T15:11:57;31.60;90.70
13256;DHT22;37913;48.370;10.930;2023-08-12T15:14:24;31.60;91.10
13256;DHT22;37913;48.370;10.930;2023-08-12T15:16:51;31.00;91.90
13256;DHT22;37913;48.370;10.930;2023-08-12T15:19:18;30.80;92.30